createdAt,value
2019-05-17T00:00:18.810Z,100.00
2019-05-17T00:02:47.318Z,100.00
2019-05-17T00:05:17.788Z,100.00
2019-05-17T00:07:47.470Z,100.00
2019-05-17T00:10:17.385Z,100.00
2019-05-17T00:12:47.121Z,100.00
2019-05-17T00:15:16.928Z,100.00
2019-05-17T00:17:46.962Z,100.00
2019-05-17T00:20:17.430Z,100.00
2019-05-17T00:22:47.107Z,100.00
2019-05-17T00:25:17.609Z,100.00
2019-05-17T00:27:47.373Z,100.00
2019-05-17T00:30:17.766Z,100.00
2019-05-17T00:32:47.617Z,100.00
2019-05-17T00:35:17.791Z,100.00
2019-05-17T00:37:46.717Z,100.00
2019-05-17T00:40:16.687Z,100.00
2019-05-17T00:42:46.641Z,100.00
2019-05-17T00:45:17.293Z,100.00
2019-05-17T00:47:46.873Z,100.00
2019-05-17T00:50:16.984Z,100.00
2019-05-17T00:52:47.550Z,100.00
2019-05-17T00:55:17.555Z,100.00
2019-05-17T00:57:47.496Z,100.00
2019-05-17T01:00:17.341Z,100.00
2019-05-17T01:02:46.776Z,100.00
2019-05-17T01:05:17.196Z,100.00
2019-05-17T01:07:47.031Z,100.00
2019-05-17T01:10:16.616Z,100.00
2019-05-17T01:12:45.269Z,100.00
2019-05-17T01:15:16.576Z,100.00
2019-05-17T01:17:47.104Z,100.00
2019-05-17T01:20:17.144Z,100.00
2019-05-17T01:22:47.489Z,100.00
2019-05-17T01:25:17.119Z,100.00
2019-05-17T01:27:47.505Z,100.00
2019-05-17T01:30:17.558Z,100.00
2019-05-17T01:32:46.557Z,100.00
2019-05-17T01:35:16.828Z,100.00
2019-05-17T01:37:47.469Z,100.00
2019-05-17T01:40:17.591Z,100.00
2019-05-17T01:42:46.679Z,100.00
2019-05-17T01:45:16.691Z,100.00
2019-05-17T01:47:47.534Z,100.00
2019-05-17T01:50:17.497Z,100.00
2019-05-17T01:52:46.397Z,100.00
2019-05-17T01:55:17.204Z,100.00
2019-05-17T01:57:47.393Z,100.00
2019-05-17T02:00:17.546Z,100.00
2019-05-17T02:02:53.701Z,100.00
2019-05-17T02:05:22.243Z,100.00
2019-05-17T02:07:50.818Z,100.00
2019-05-17T02:10:19.637Z,100.00
2019-05-17T02:12:49.091Z,100.00
2019-05-17T02:15:18.201Z,100.00
2019-05-17T02:17:47.055Z,100.00
2019-05-17T02:20:17.074Z,100.00
2019-05-17T02:22:47.461Z,100.00
2019-05-17T02:25:17.772Z,100.00
2019-05-17T02:27:46.276Z,100.00
2019-05-17T02:30:15.501Z,100.00
2019-05-17T02:32:44.970Z,100.00
2019-05-17T02:35:15.090Z,100.00
2019-05-17T02:37:44.005Z,100.00
2019-05-17T02:40:14.449Z,100.00
2019-05-17T02:42:43.743Z,100.00
2019-05-17T02:45:13.435Z,100.00
2019-05-17T02:47:43.729Z,100.00
2019-05-17T02:50:13.353Z,100.00
2019-05-17T02:52:43.797Z,100.00
2019-05-17T02:55:13.096Z,100.00
2019-05-17T02:57:43.242Z,100.00
2019-05-17T03:00:13.639Z,100.00
2019-05-17T03:02:43.451Z,100.00
2019-05-17T03:05:13.138Z,100.00
2019-05-17T03:07:44.096Z,100.00
2019-05-17T03:10:22.767Z,100.00
2019-05-17T03:12:44.421Z,100.00
2019-05-17T03:15:13.315Z,100.00
2019-05-17T03:17:43.404Z,100.00
2019-05-17T03:20:13.730Z,100.00
2019-05-17T03:22:43.956Z,100.00
2019-05-17T03:25:13.936Z,100.00
2019-05-17T03:27:43.250Z,100.00
2019-05-17T03:30:17.161Z,100.00
2019-05-17T03:32:47.888Z,100.00
2019-05-17T03:35:17.284Z,100.00
2019-05-17T03:37:44.837Z,100.00
2019-05-17T03:40:34.787Z,100.00
2019-05-17T03:42:44.541Z,100.00
2019-05-17T03:45:13.892Z,100.00
2019-05-17T03:47:44.621Z,100.00
2019-05-17T03:50:13.809Z,100.00
2019-05-17T03:52:44.442Z,100.00
2019-05-17T03:55:13.593Z,100.00
2019-05-17T03:57:44.014Z,100.00
2019-05-17T04:00:13.472Z,100.00
2019-05-17T04:02:44.532Z,100.00
2019-05-17T04:05:13.038Z,100.00
2019-05-17T04:07:43.418Z,100.00
2019-05-17T04:10:15.040Z,100.00
2019-05-17T04:12:44.181Z,100.00
2019-05-17T04:15:14.675Z,100.00
2019-05-17T04:17:44.258Z,100.00
2019-05-17T04:20:13.990Z,100.00
2019-05-17T04:22:44.201Z,100.00
2019-05-17T04:25:13.843Z,100.00
2019-05-17T04:27:43.811Z,100.00
2019-05-17T04:30:13.112Z,100.00
2019-05-17T04:32:44.167Z,100.00
2019-05-17T04:35:13.501Z,100.00
2019-05-17T04:37:44.616Z,100.00
2019-05-17T04:40:14.073Z,100.00
2019-05-17T04:42:44.032Z,100.00
2019-05-17T04:45:13.394Z,100.00
2019-05-17T04:47:44.515Z,100.00
2019-05-17T04:50:13.490Z,100.00
2019-05-17T04:52:43.019Z,100.00
2019-05-17T04:55:13.564Z,100.00
2019-05-17T04:57:44.057Z,100.00
2019-05-17T05:00:13.511Z,100.00
2019-05-17T05:02:43.604Z,100.00
2019-05-17T05:05:13.917Z,100.00
2019-05-17T05:07:43.324Z,100.00
2019-05-17T05:10:14.007Z,100.00
2019-05-17T05:12:43.878Z,100.00
2019-05-17T05:15:12.890Z,100.00
2019-05-17T05:17:42.600Z,100.00
2019-05-17T05:20:13.267Z,100.00
2019-05-17T05:22:42.875Z,100.00
2019-05-17T05:25:12.498Z,100.00
2019-05-17T05:27:42.676Z,100.00
2019-05-17T05:30:12.167Z,100.00
2019-05-17T05:32:42.791Z,100.00
2019-05-17T05:35:12.373Z,100.00
2019-05-17T05:37:42.423Z,100.00
2019-05-17T05:40:12.620Z,100.00
2019-05-17T05:42:42.709Z,100.00
2019-05-17T05:45:12.360Z,100.00
2019-05-17T05:47:42.474Z,100.00
2019-05-17T05:50:12.697Z,100.00
2019-05-17T05:52:42.247Z,100.00
2019-05-17T05:55:12.339Z,100.00
2019-05-17T05:57:42.118Z,100.00
2019-05-17T06:00:13.443Z,100.00
2019-05-17T06:02:42.270Z,100.00
2019-05-17T06:05:14.675Z,100.00
2019-05-17T06:07:42.444Z,100.00
2019-05-17T06:10:12.933Z,100.00
2019-05-17T06:12:43.446Z,100.00
2019-05-17T06:15:12.995Z,100.00
2019-05-17T06:17:42.775Z,100.00
2019-05-17T06:20:12.282Z,98.89
2019-05-17T06:22:42.769Z,98.16
2019-05-17T06:25:14.871Z,98.50
2019-05-17T06:27:41.697Z,98.62
2019-05-17T06:30:12.587Z,97.57
2019-05-17T06:32:43.246Z,96.26
2019-05-17T06:35:12.634Z,95.52
2019-05-17T06:37:42.265Z,92.90
2019-05-17T06:40:13.104Z,92.94
2019-05-17T06:42:45.280Z,89.75
2019-05-17T06:45:13.129Z,88.82
2019-05-17T06:47:42.668Z,86.88
2019-05-17T06:50:14.333Z,91.27
2019-05-17T06:52:43.479Z,91.65
2019-05-17T06:55:13.031Z,90.90
2019-05-17T06:57:43.376Z,88.99
2019-05-17T07:00:19.750Z,88.81
2019-05-17T07:02:43.741Z,91.24
2019-05-17T07:05:14.096Z,89.86
2019-05-17T07:07:42.646Z,84.40
2019-05-17T07:10:12.267Z,86.49
2019-05-17T07:12:54.999Z,89.24
2019-05-17T07:15:11.625Z,88.92
2019-05-17T07:17:40.385Z,89.86
2019-05-17T07:20:10.317Z,88.67
2019-05-17T07:22:40.839Z,87.13
2019-05-17T07:25:10.726Z,84.97
2019-05-17T07:27:45.336Z,85.26
2019-05-17T07:30:11.103Z,85.67
2019-05-17T07:32:40.598Z,87.00
2019-05-17T07:35:10.825Z,85.66
2019-05-17T07:37:39.926Z,85.92
2019-05-17T07:40:10.847Z,81.74
2019-05-17T07:42:39.715Z,82.64
2019-05-17T07:45:10.091Z,81.59
2019-05-17T07:47:40.447Z,81.81
2019-05-17T07:50:11.497Z,82.10
2019-05-17T07:52:40.103Z,82.56
2019-05-17T07:55:10.975Z,81.96
2019-05-17T07:57:41.012Z,84.27
2019-05-17T08:00:10.488Z,82.15
2019-05-17T08:02:40.209Z,82.32
2019-05-17T08:05:10.520Z,83.16
2019-05-17T08:07:40.279Z,77.33
2019-05-17T08:10:11.048Z,78.05
2019-05-17T08:12:41.012Z,76.93
2019-05-17T08:15:11.183Z,76.25
2019-05-17T08:17:40.037Z,77.90
2019-05-17T08:20:10.342Z,78.25
2019-05-17T08:22:40.118Z,73.47
2019-05-17T08:25:10.251Z,74.06
2019-05-17T08:27:40.489Z,75.76
2019-05-17T08:30:11.940Z,72.21
2019-05-17T08:32:40.612Z,71.09
2019-05-17T08:35:11.332Z,71.50
2019-05-17T08:37:42.313Z,68.96
2019-05-17T08:40:10.782Z,69.34
2019-05-17T08:42:40.758Z,68.08
2019-05-17T08:45:09.966Z,65.37
2019-05-17T08:47:39.633Z,65.87
2019-05-17T08:50:11.255Z,66.98
2019-05-17T08:52:40.244Z,66.07
2019-05-17T08:55:09.836Z,66.25
2019-05-17T08:57:39.960Z,67.59
2019-05-17T09:00:10.692Z,65.81
2019-05-17T09:02:40.962Z,63.09
2019-05-17T09:05:10.221Z,62.84
2019-05-17T09:07:40.111Z,65.05
2019-05-17T09:10:09.925Z,66.71
2019-05-17T09:12:40.914Z,66.08
2019-05-17T09:15:10.673Z,64.18
2019-05-17T09:17:39.847Z,64.45
2019-05-17T09:20:10.581Z,65.10
2019-05-17T09:22:39.572Z,62.23
2019-05-17T09:25:13.516Z,64.26
2019-05-17T09:27:39.760Z,67.22
2019-05-17T09:30:10.707Z,66.67
2019-05-17T09:32:40.502Z,65.08
2019-05-17T09:35:09.981Z,64.77
2019-05-17T09:37:41.377Z,69.54
2019-05-17T09:40:09.658Z,67.50
2019-05-17T09:42:40.769Z,65.16
2019-05-17T09:45:09.594Z,68.75
2019-05-17T09:47:39.697Z,68.11
2019-05-17T09:50:10.006Z,63.86
2019-05-17T09:52:40.518Z,68.97
2019-05-17T09:55:09.968Z,64.53
2019-05-17T09:57:40.779Z,64.41
2019-05-17T10:00:10.159Z,62.50
2019-05-17T10:02:40.229Z,56.74
2019-05-17T10:05:10.681Z,53.87
2019-05-17T10:07:40.283Z,56.32
2019-05-17T10:10:10.515Z,56.90
2019-05-17T10:12:40.333Z,61.13
2019-05-17T10:15:10.366Z,62.61
2019-05-17T10:17:38.983Z,59.29
2019-05-17T10:20:10.499Z,60.32
2019-05-17T10:22:40.215Z,59.60
2019-05-17T10:25:09.679Z,57.23
2019-05-17T10:27:40.421Z,55.46
2019-05-17T10:30:10.563Z,57.42
2019-05-17T10:32:40.715Z,60.61
2019-05-17T10:35:10.247Z,58.31
2019-05-17T10:37:40.647Z,59.08
2019-05-17T10:40:10.740Z,55.09
2019-05-17T10:42:39.819Z,52.80
2019-05-17T10:45:10.865Z,50.12
2019-05-17T10:47:39.990Z,51.14
2019-05-17T10:50:10.889Z,49.50
2019-05-17T10:52:41.021Z,51.05
2019-05-17T10:55:10.795Z,48.74
2019-05-17T10:57:39.390Z,49.72
2019-05-17T11:00:10.075Z,52.59
2019-05-17T11:02:38.786Z,58.88
2019-05-17T11:05:07.621Z,57.13
2019-05-17T11:07:36.095Z,56.26
2019-05-17T11:10:06.111Z,59.26
2019-05-17T11:12:34.579Z,58.44
2019-05-17T11:15:11.009Z,61.63
2019-05-17T11:17:33.942Z,62.25
2019-05-17T11:20:02.536Z,57.90
2019-05-17T11:22:31.004Z,59.82
2019-05-17T11:24:59.493Z,56.39
2019-05-17T11:27:27.995Z,57.87
2019-05-17T11:29:56.448Z,52.79
2019-05-17T11:32:24.945Z,56.53
2019-05-17T11:34:53.423Z,56.21
2019-05-17T11:37:21.929Z,56.03
2019-05-17T11:39:50.401Z,55.16
2019-05-17T11:42:18.904Z,58.73
2019-05-17T11:44:47.384Z,57.81
2019-05-17T11:47:15.904Z,55.99
2019-05-17T11:49:44.377Z,58.65
2019-05-17T11:52:12.873Z,57.16
2019-05-17T11:54:41.360Z,55.10
2019-05-17T11:57:12.325Z,56.94
2019-05-17T11:59:40.126Z,55.70
2019-05-17T12:02:08.656Z,58.66
2019-05-17T12:04:37.503Z,60.78
2019-05-17T12:07:06.253Z,60.39
2019-05-17T12:09:37.803Z,62.35
2019-05-17T12:12:05.174Z,61.05
2019-05-17T12:14:34.765Z,62.70
2019-05-17T12:17:05.380Z,65.70
2019-05-17T12:19:37.263Z,65.55
2019-05-17T12:22:07.434Z,67.78
2019-05-17T12:24:36.457Z,67.52
2019-05-17T12:27:05.432Z,68.03
2019-05-17T12:29:34.340Z,68.04
2019-05-17T12:32:03.381Z,59.54
2019-05-17T12:34:31.919Z,55.96
2019-05-17T12:37:00.418Z,56.51
2019-05-17T12:39:28.901Z,53.92
2019-05-17T12:41:57.462Z,49.71
2019-05-17T12:44:26.089Z,38.40
2019-05-17T12:46:54.605Z,39.42
2019-05-17T12:49:23.109Z,41.71
2019-05-17T12:51:51.622Z,44.64
2019-05-17T12:54:20.100Z,50.31
2019-05-17T12:56:48.602Z,53.58
2019-05-17T12:59:17.151Z,54.40
2019-05-17T13:01:45.704Z,55.23
2019-05-17T13:04:14.202Z,55.28
2019-05-17T13:06:42.702Z,55.08
2019-05-17T13:09:11.250Z,55.23
2019-05-17T13:11:39.758Z,56.73
2019-05-17T13:14:08.247Z,56.09
2019-05-17T13:16:37.530Z,59.07
2019-05-17T13:19:05.997Z,54.94
2019-05-17T13:21:34.573Z,54.32
2019-05-17T13:24:03.051Z,54.68
2019-05-17T13:26:31.544Z,53.75
2019-05-17T13:29:00.021Z,55.41
2019-05-17T13:31:28.542Z,52.96
2019-05-17T13:33:57.026Z,47.02
2019-05-17T13:36:25.531Z,46.62
2019-05-17T13:38:54.015Z,38.72
2019-05-17T13:41:22.514Z,30.74
2019-05-17T13:43:50.994Z,30.45
2019-05-17T13:46:32.231Z,33.79
2019-05-17T13:48:49.851Z,36.77
2019-05-17T13:51:18.345Z,36.95
2019-05-17T13:53:46.816Z,36.18
2019-05-17T13:56:15.324Z,35.23
2019-05-17T13:58:43.801Z,39.72
2019-05-17T14:01:12.293Z,43.14
2019-05-17T14:03:40.776Z,45.14
2019-05-17T14:06:09.323Z,45.83
2019-05-17T14:08:37.756Z,49.57
2019-05-17T14:11:06.251Z,50.18
2019-05-17T14:13:34.743Z,50.13
2019-05-17T14:16:03.235Z,51.82
2019-05-17T14:18:31.705Z,47.77
2019-05-17T14:21:00.180Z,41.65
2019-05-17T14:23:30.097Z,31.38
2019-05-17T14:25:59.425Z,31.37
2019-05-17T14:28:27.904Z,32.50
2019-05-17T14:30:56.380Z,30.64
2019-05-17T14:33:24.892Z,32.98
2019-05-17T14:35:53.351Z,30.69
2019-05-17T14:38:21.857Z,32.06
2019-05-17T14:41:08.133Z,29.48
2019-05-17T14:43:20.547Z,29.29
2019-05-17T14:45:49.017Z,31.88
2019-05-17T14:48:17.516Z,31.91
2019-05-17T14:50:45.995Z,28.32
2019-05-17T14:53:14.504Z,30.95
2019-05-17T14:55:42.972Z,29.03
2019-05-17T14:58:11.484Z,33.59
2019-05-17T15:00:39.944Z,33.49
2019-05-17T15:03:08.447Z,31.73
2019-05-17T15:05:36.934Z,29.86
2019-05-17T15:08:05.437Z,32.32
2019-05-17T15:10:33.985Z,34.94
2019-05-17T15:13:02.497Z,32.65
2019-05-17T15:15:30.961Z,30.58
2019-05-17T15:17:59.710Z,32.44
2019-05-17T15:20:28.184Z,32.21
2019-05-17T15:22:56.677Z,33.02
2019-05-17T15:25:25.374Z,32.75
2019-05-17T15:27:54.175Z,39.63
2019-05-17T15:30:22.916Z,42.40
2019-05-17T15:32:51.529Z,46.84
2019-05-17T15:35:20.205Z,44.61
2019-05-17T15:37:48.967Z,49.16
2019-05-17T15:40:17.861Z,47.65
2019-05-17T15:42:46.630Z,44.87
2019-05-17T15:45:15.443Z,42.63
2019-05-17T15:47:44.159Z,43.67
2019-05-17T15:50:12.934Z,44.09
2019-05-17T15:52:41.670Z,42.43
2019-05-17T15:55:10.650Z,38.33
2019-05-17T15:57:39.400Z,34.99
2019-05-17T16:00:08.562Z,37.03
2019-05-17T16:02:37.270Z,35.47
2019-05-17T16:05:06.342Z,42.39
2019-05-17T16:07:35.098Z,45.71
2019-05-17T16:10:06.311Z,49.71
2019-05-17T16:12:34.815Z,52.56
2019-05-17T16:15:04.359Z,52.54
2019-05-17T16:17:32.864Z,47.03
2019-05-17T16:20:01.370Z,43.81
2019-05-17T16:22:29.845Z,45.58
2019-05-17T16:24:58.316Z,44.21
2019-05-17T16:27:26.828Z,43.63
2019-05-17T16:29:55.305Z,41.73
2019-05-17T16:32:23.816Z,40.64
2019-05-17T16:34:52.552Z,44.37
2019-05-17T16:37:21.120Z,43.79
2019-05-17T16:39:49.738Z,45.09
2019-05-17T16:42:18.222Z,41.53
2019-05-17T16:44:46.720Z,39.62
2019-05-17T16:47:15.198Z,40.41
2019-05-17T16:49:43.695Z,44.76
2019-05-17T16:52:12.186Z,48.00
2019-05-17T16:54:40.681Z,51.43
2019-05-17T16:57:09.162Z,55.62
2019-05-17T16:59:37.742Z,57.38
2019-05-17T17:02:06.361Z,58.32
2019-05-17T17:04:34.869Z,60.66
2019-05-17T17:07:03.348Z,62.03
2019-05-17T17:09:31.947Z,64.39
2019-05-17T17:12:00.505Z,64.71
2019-05-17T17:14:29.033Z,66.10
2019-05-17T17:16:57.512Z,66.01
2019-05-17T17:19:26.092Z,67.68
2019-05-17T17:21:54.572Z,69.04
2019-05-17T17:24:23.084Z,69.92
2019-05-17T17:26:51.590Z,69.22
2019-05-17T17:29:20.103Z,69.26
2019-05-17T17:31:48.590Z,69.22
2019-05-17T17:34:17.099Z,69.06
2019-05-17T17:36:45.584Z,70.42
2019-05-17T17:39:14.129Z,71.46
2019-05-17T17:41:42.616Z,72.59
2019-05-17T17:44:11.118Z,72.61
2019-05-17T17:46:39.603Z,73.16
2019-05-17T17:49:08.111Z,71.39
2019-05-17T17:51:36.766Z,73.30
2019-05-17T17:54:05.342Z,74.72
2019-05-17T17:56:33.890Z,74.74
2019-05-17T17:59:02.406Z,75.78
2019-05-17T18:01:30.881Z,77.39
2019-05-17T18:03:59.388Z,79.14
2019-05-17T18:06:27.896Z,80.03
2019-05-17T18:08:56.413Z,80.67
2019-05-17T18:11:24.887Z,81.39
2019-05-17T18:13:53.402Z,82.35
2019-05-17T18:16:21.877Z,82.34
2019-05-17T18:18:50.416Z,83.03
2019-05-17T18:21:18.885Z,84.74
2019-05-17T18:23:47.361Z,84.69
2019-05-17T18:26:15.895Z,85.13
2019-05-17T18:28:44.376Z,85.50
2019-05-17T18:31:12.901Z,85.29
2019-05-17T18:33:41.379Z,86.30
2019-05-17T18:36:09.888Z,86.59
2019-05-17T18:38:38.519Z,87.86
2019-05-17T18:41:07.104Z,88.57
2019-05-17T18:43:35.734Z,89.45
2019-05-17T18:46:04.394Z,89.21
2019-05-17T18:48:32.945Z,88.93
2019-05-17T18:51:01.453Z,89.25
2019-05-17T18:53:29.994Z,89.89
2019-05-17T18:55:58.583Z,89.63
2019-05-17T18:58:27.073Z,90.00
2019-05-17T19:00:55.649Z,90.54
2019-05-17T19:03:24.201Z,91.81
2019-05-17T19:05:52.778Z,91.34
2019-05-17T19:08:21.282Z,92.03
2019-05-17T19:10:49.799Z,92.29
2019-05-17T19:13:18.357Z,92.56
2019-05-17T19:15:46.863Z,93.17
2019-05-17T19:18:15.415Z,93.66
2019-05-17T19:20:43.991Z,93.87
2019-05-17T19:23:12.479Z,94.96
2019-05-17T19:25:41.018Z,95.36
2019-05-17T19:28:09.554Z,95.44
2019-05-17T19:30:38.066Z,94.73
2019-05-17T19:33:06.914Z,95.74
2019-05-17T19:35:35.420Z,96.23
2019-05-17T19:38:04.567Z,97.27
2019-05-17T19:40:33.159Z,97.75
2019-05-17T19:43:01.630Z,95.81
2019-05-17T19:45:30.140Z,95.91
2019-05-17T19:47:58.641Z,97.10
2019-05-17T19:50:27.141Z,97.22
2019-05-17T19:52:55.621Z,97.30
2019-05-17T19:55:24.133Z,97.08
2019-05-17T19:57:52.611Z,96.51
2019-05-17T20:00:22.526Z,95.37
2019-05-17T20:02:51.000Z,96.47
2019-05-17T20:05:19.579Z,95.67
2019-05-17T20:07:48.059Z,96.06
2019-05-17T20:10:17.714Z,95.88
2019-05-17T20:12:46.265Z,95.85
2019-05-17T20:15:17.812Z,96.65
2019-05-17T20:17:45.208Z,95.97
2019-05-17T20:20:14.027Z,97.17
2019-05-17T20:22:42.532Z,98.19
2019-05-17T20:25:11.347Z,97.71
2019-05-17T20:27:39.930Z,97.73
2019-05-17T20:30:09.445Z,97.29
2019-05-17T20:32:38.062Z,97.58
2019-05-17T20:35:07.779Z,98.29
2019-05-17T20:37:36.289Z,98.48
2019-05-17T20:40:06.937Z,98.65
2019-05-17T20:42:35.444Z,99.54
2019-05-17T20:45:08.012Z,98.71
2019-05-17T20:47:36.521Z,98.22
2019-05-17T20:50:08.865Z,97.68
2019-05-17T20:52:37.369Z,98.22
2019-05-17T20:55:06.982Z,97.62
2019-05-17T20:57:35.486Z,97.58
2019-05-17T21:00:05.959Z,97.53
2019-05-17T21:02:34.498Z,99.07
2019-05-17T21:05:03.102Z,98.67
2019-05-17T21:07:31.605Z,97.62
2019-05-17T21:10:00.089Z,97.95
2019-05-17T21:12:28.596Z,97.67
2019-05-17T21:14:57.084Z,98.16
2019-05-17T21:17:25.579Z,98.21
2019-05-17T21:19:54.064Z,98.97
2019-05-17T21:22:22.565Z,98.97
2019-05-17T21:24:51.043Z,98.26
2019-05-17T21:27:19.540Z,98.85
2019-05-17T21:29:48.017Z,99.62
2019-05-17T21:32:16.531Z,100.00
2019-05-17T21:34:45.024Z,99.48
2019-05-17T21:37:13.530Z,100.00
2019-05-17T21:39:42.193Z,100.00
2019-05-17T21:42:11.510Z,99.71
2019-05-17T21:44:40.038Z,99.48
2019-05-17T21:47:08.646Z,100.00
2019-05-17T21:49:37.142Z,99.79
2019-05-17T21:52:06.113Z,100.00
2019-05-17T21:54:34.594Z,99.44
2019-05-17T21:57:03.108Z,99.86
2019-05-17T21:59:31.652Z,100.00
2019-05-17T22:02:00.699Z,100.00
2019-05-17T22:04:29.185Z,100.00
2019-05-17T22:06:57.694Z,100.00
2019-05-17T22:09:26.172Z,100.00
2019-05-17T22:11:59.032Z,100.00
2019-05-17T22:14:27.515Z,100.00
2019-05-17T22:16:56.024Z,100.00
2019-05-17T22:19:24.509Z,100.00
2019-05-17T22:21:52.987Z,100.00
2019-05-17T22:24:21.493Z,100.00
2019-05-17T22:26:49.976Z,100.00
2019-05-17T22:29:18.484Z,98.68
2019-05-17T22:31:46.963Z,99.45
2019-05-17T22:34:15.474Z,99.90
2019-05-17T22:36:43.957Z,100.00
2019-05-17T22:39:12.464Z,100.00
2019-05-17T22:41:40.947Z,100.00
2019-05-17T22:44:09.462Z,100.00
2019-05-17T22:46:37.939Z,100.00
2019-05-17T22:49:06.473Z,100.00
2019-05-17T22:51:34.938Z,100.00
2019-05-17T22:54:03.519Z,100.00
2019-05-17T22:56:32.002Z,100.00
2019-05-17T22:59:00.508Z,100.00
2019-05-17T23:01:29.002Z,100.00
2019-05-17T23:03:57.501Z,100.00
2019-05-17T23:06:25.991Z,100.00
2019-05-17T23:08:54.519Z,100.00
2019-05-17T23:11:23.237Z,98.61
2019-05-17T23:13:51.735Z,100.00
2019-05-17T23:16:20.214Z,100.00
2019-05-17T23:19:06.020Z,100.00
2019-05-17T23:21:34.497Z,100.00
2019-05-17T23:24:03.010Z,100.00
2019-05-17T23:26:31.552Z,100.00
2019-05-17T23:29:00.166Z,100.00
2019-05-17T23:31:28.687Z,100.00
2019-05-17T23:33:57.191Z,100.00
2019-05-17T23:36:25.676Z,100.00
2019-05-17T23:38:54.173Z,100.00
2019-05-17T23:41:22.698Z,100.00
2019-05-17T23:43:51.177Z,100.00
2019-05-17T23:46:19.661Z,100.00
2019-05-17T23:48:48.169Z,100.00
2019-05-17T23:51:16.648Z,100.00
2019-05-17T23:53:45.160Z,100.00
2019-05-17T23:56:13.640Z,100.00
2019-05-17T23:58:42.154Z,100.00
